• Join FlightAware (Why Join?)
  • Login
  • US Flag 
02:34PM EDT


 

Airport Tracker/Info


-or-


 

Live Flight TrackerFlight Track Log ✈ SWA1798 ✈ 06-Sep-2014 ✈ KMKE - KPHX

Flight Track Log - Related Links

Times and Time Zones

All times are in EDT time to prevent confusion due to time zone crossing. See the SWA1798 flight status page for this flight to view local times or setup timezone preferences in your user account.

Time Position Orientation Groundspeed Altitude Reporting Facility
EDT Latitude Longitude Course Direction KTS MPH feet Rate Location/Type
04:43PM 42.9667 -87.8833 324° Northwest 174 200 1,500  Level KMKE
04:44PM 43.0000 -87.9167 345° North 219 252 3,400 2,340 Climbing KMKE
04:45PM 42.9911 -88.0617 265° West 260 299 7,400 2,880 Climbing Chicago Center
04:46PM 42.9794 -88.1686 262° West 276 318 10,600 2,640 Climbing Chicago Center
04:47PM 42.9672 -88.2808 262° West 293 337 12,900 1,920 Climbing Chicago Center
04:48PM 42.9553 -88.4097 263° West 334 384 14,600 1,980 Climbing Chicago Center
04:49PM 42.9414 -88.5483 262° West 359 413 17,100 2,340 Climbing Chicago Center
04:50PM 42.9442 -88.6908 272° West 372 428 19,500 1,980 Climbing Chicago Center
04:51PM 42.9494 -88.8333 273° West 372 428 21,200 1,500 Climbing Chicago Center
04:52PM 42.9542 -88.9897 272° West 402 463 22,600 1,740 Climbing Chicago Center
04:53PM 42.9592 -89.1814 272° West 415 478 24,800 1,680 Climbing Chicago Center
04:54PM 42.9636 -89.3425 272° West 422 486 26,100 1,500 Climbing Chicago Center
04:55PM 42.9678 -89.5086 272° West 430 495 27,900 1,440 Climbing Chicago Center
04:56PM 42.9589 -89.6714 266° West 437 503 29,100 1,020 Climbing Chicago Center
04:57PM 42.9136 -89.8319 249° West 448 516 30,100 1,320 Climbing Chicago Center
04:58PM 42.8700 -89.9964 250° West 450 518 31,900 1,800 Climbing Chicago Center
05:00PM 42.8239 -90.1472 247° West 435 501 33,900 1,020 Climbing Chicago Center
05:01PM 42.7514 -90.2689 231° Southwest 413 475 34,000  Climbing Chicago Center
05:02PM 42.6775 -90.3956 232° Southwest 421 484 34,000  Level Chicago Center
05:03PM 42.5897 -90.5483 232° Southwest 423 487 34,000  Level Chicago Center
05:04PM 42.5172 -90.6756 232° Southwest 424 488 34,000  Level Chicago Center
05:05PM 42.4597 -90.8122 240° Southwest 419 482 34,000  Level Chicago Center
05:06PM 42.4208 -90.9583 250° West 410 472 34,000  Level Chicago Center
05:07PM 42.3808 -91.1014 249° West 409 471 34,000  Level Chicago Center
05:08PM 42.3403 -91.2447 249° West 408 470 34,000  Level Chicago Center
05:09PM 42.2994 -91.3892 249° West 408 470 34,000  Level Chicago Center
05:10PM 42.2589 -91.5339 249° West 409 471 34,000  Level Chicago Center
05:11PM 42.2097 -91.7056 249° West 409 471 34,000  Level Chicago Center
05:12PM 42.1694 -91.8483 249° West 409 471 34,000  Level Chicago Center
05:13PM 42.1281 -91.9900 249° West 409 471 34,000  Level Chicago Center
05:14PM 42.0869 -92.1319 249° West 408 470 34,000  Level Chicago Center
05:15PM 42.0458 -92.2739 249° West 408 470 34,000  Level Chicago Center
05:16PM 42.0047 -92.4150 249° West 408 470 34,000  Level Chicago Center
05:17PM 41.9622 -92.5542 248° West 407 468 34,000  Level Chicago Center
05:18PM 41.9208 -92.6989 249° West 406 467 34,000  Level Minneapolis Center
05:19PM 41.8811 -92.8319 248° West 406 467 34,000  Level Minneapolis Center
05:20PM 41.8397 -92.9714 248° West 406 467 34,000  Level Minneapolis Center
05:21PM 41.7967 -93.1106 248° West 407 468 34,000  Level Minneapolis Center
05:22PM 41.7467 -93.2775 248° West 407 468 34,000  Level Minneapolis Center
05:23PM 41.7044 -93.4156 248° West 406 467 34,000  Level Minneapolis Center
05:24PM 41.6625 -93.5514 248° West 405 466 34,000  Level Minneapolis Center
05:25PM 41.6206 -93.6861 247° West 401 461 34,000  Level Minneapolis Center
05:26PM 41.5775 -93.8233 247° West 401 461 34,000  Level Minneapolis Center
05:27PM 41.5283 -93.9828 248° West 398 458 34,000  Level Minneapolis Center
05:28PM 41.4861 -94.1161 247° West 398 458 34,000  Level Minneapolis Center
05:29PM 41.4431 -94.2528 247° West 396 456 34,000  Level Minneapolis Center
05:30PM 41.4008 -94.3869 247° West 393 452 34,000  Level Minneapolis Center
05:31PM 41.3586 -94.5217 247° West 393 452 34,000  Level Minneapolis Center
05:32PM 41.3156 -94.6575 247° West 394 453 34,000  Level Minneapolis Center
05:33PM 41.2714 -94.7933 247° West 395 455 34,000  Level Minneapolis Center
05:34PM 41.2281 -94.9283 247° West 396 456 34,000  Level Minneapolis Center
05:35PM 41.1844 -95.0653 247° West 397 457 34,000  Level Minneapolis Center
05:36PM 41.1303 -95.2292 246° West 399 459 34,000  Level Minneapolis Center
05:37PM 41.0847 -95.3650 246° West 400 460 34,000  Level Minneapolis Center
05:38PM 41.0397 -95.5031 247° West 401 461 34,000  Level Minneapolis Center
05:39PM 40.9942 -95.6392 246° West 402 463 34,000  Level Minneapolis Center
05:40PM 40.9478 -95.7772 246° West 402 463 34,000  Level Minneapolis Center
05:42PM 40.9017 -95.9144 246° West 403 464 34,000  Level Minneapolis Center
05:43PM 40.8561 -96.0508 246° West 403 464 34,000  Level Minneapolis Center
05:44PM 40.8103 -96.1875 246° West 403 464 34,000  Level Minneapolis Center
05:45PM 40.7647 -96.3222 246° West 403 464 34,000  Level Minneapolis Center
05:46PM 40.7183 -96.4569 246° West 403 464 34,000  Level Minneapolis Center
05:47PM 40.6722 -96.5925 246° West 403 464 34,000  Level Minneapolis Center
05:48PM 40.6167 -96.7539 246° West 403 464 34,000  Level Minneapolis Center
05:49PM 40.5708 -96.8867 246° West 403 464 34,000  Level Minneapolis Center
05:50PM 40.5244 -97.0206 246° West 403 464 34,000  Level Minneapolis Center
05:51PM 40.4778 -97.1536 245° Southwest 402 463 34,000  Level Minneapolis Center
05:52PM 40.4311 -97.2872 245° Southwest 402 463 34,000  Level Minneapolis Center
05:53PM 40.3783 -97.4358 245° Southwest 402 463 34,000  Level Minneapolis Center
05:54PM 40.3317 -97.5694 245° Southwest 402 463 34,000  Level Minneapolis Center
05:55PM 40.2833 -97.7031 245° Southwest 402 463 34,000  Level Minneapolis Center
05:56PM 40.2361 -97.8347 245° Southwest 402 463 34,000  Level Minneapolis Center
05:57PM 40.1886 -97.9678 245° Southwest 402 463 34,000  Level Minneapolis Center
05:58PM 40.1408 -98.1017 245° Southwest 402 463 34,000  Level Minneapolis Center
05:59PM 40.0922 -98.2325 244° Southwest 402 463 34,000  Level Minneapolis Center
06:00PM 40.0450 -98.3650 245° Southwest 402 463 34,000  Level Minneapolis Center
06:01PM 39.9964 -98.4969 244° Southwest 402 463 34,000  Level Minneapolis Center
06:02PM 39.9386 -98.6544 244° Southwest 402 463 34,000  Level Minneapolis Center
06:03PM 39.8903 -98.7864 245° Southwest 402 463 34,000  Level Minneapolis Center
06:04PM 39.8422 -98.9169 244° Southwest 402 463 34,000  Level Minneapolis Center
06:05PM 39.8022 -99.0214 244° Southwest 401 461 34,000  Level Denver Center
06:06PM 39.7533 -99.1511 244° Southwest 401 461 34,000  Level Denver Center
06:07PM 39.7044 -99.2811 244° Southwest 401 461 34,000  Level Denver Center
06:08PM 39.6553 -99.4119 244° Southwest 402 463 34,000  Level Denver Center
06:09PM 39.6058 -99.5436 244° Southwest 403 464 34,000  Level Denver Center
06:10PM 39.5556 -99.6739 243° Southwest 403 464 34,000  Level Denver Center
06:11PM 39.5053 -99.8058 244° Southwest 405 466 34,000  Level Denver Center
06:12PM 39.4458 -99.9617 244° Southwest 406 467 34,000  Level Denver Center
06:13PM 39.3969 -100.0872 243° Southwest 406 467 34,000  Level Denver Center
06:14PM 39.3475 -100.2119 243° Southwest 406 467 34,000  Level Denver Center
06:15PM 39.2908 -100.3586 244° Southwest 409 471 34,000  Level Denver Center
06:16PM 39.2419 -100.4842 243° Southwest 408 470 34,000  Level Denver Center
06:17PM 39.1853 -100.6303 243° Southwest 408 470 34,000  Level Denver Center
06:18PM 39.1353 -100.7544 243° Southwest 408 470 34,000  Level Denver Center
06:19PM 39.0775 -100.9000 243° Southwest 408 470 34,000  Level Denver Center
06:20PM 39.0283 -101.0242 243° Southwest 408 470 34,000  Level Denver Center
06:21PM 38.9767 -101.1547 243° Southwest 409 471 34,000  Level Denver Center
06:22PM 38.9186 -101.2986 243° Southwest 408 470 34,000  Level Denver Center
06:23PM 38.8689 -101.4214 243° Southwest 408 470 34,000  Level Denver Center
06:24PM 38.8106 -101.5650 243° Southwest 408 470 34,000  Level Denver Center
06:25PM 38.7597 -101.6886 242° Southwest 409 471 34,000  Level Denver Center
06:26PM 38.7094 -101.8122 242° Southwest 409 471 34,000  Level Denver Center
06:27PM 38.6500 -101.9567 242° Southwest 410 472 34,000  Level Denver Center
06:29PM 38.5986 -102.0822 242° Southwest 413 475 34,000 720 Level Denver Center
06:30PM 38.5392 -102.2258 242° Southwest 413 475 35,500 960 Climbing Denver Center
06:31PM 38.4889 -102.3472 242° Southwest 409 471 36,000 240 Climbing Denver Center
06:32PM 38.4297 -102.4897 242° Southwest 408 470 36,000  Level Denver Center
06:33PM 38.3778 -102.6111 241° Southwest 408 470 36,000  Level Denver Center
06:34PM 38.3172 -102.7542 242° Southwest 409 471 36,000  Level Denver Center
06:35PM 38.2661 -102.8769 242° Southwest 410 472 36,000  Level Denver Center
06:36PM 38.2119 -103.0014 241° Southwest 415 478 36,000  Level Denver Center
06:37PM 38.1539 -103.1378 242° Southwest 415 478 36,000  Level Denver Center
06:38PM 38.0986 -103.2692 242° Southwest 421 484 36,000  Level Denver Center
06:39PM 38.0283 -103.3889 233° Southwest 434 499 36,000  Level Denver Center
06:40PM 37.9342 -103.4836 218° Southwest 431 496 36,000  Level Denver Center
06:41PM 37.8206 -103.5967 218° Southwest 433 498 36,000  Level Denver Center
06:42PM 37.7253 -103.6939 219° Southwest 434 499 36,000  Level Denver Center
06:43PM 37.6308 -103.7889 219° Southwest 434 499 36,000  Level Denver Center
06:44PM 37.5336 -103.8867 219° Southwest 435 501 36,000  Level Denver Center
06:45PM 37.4306 -103.9892 218° Southwest 444 511 36,000  Level Denver Center
06:46PM 37.3364 -104.0906 221° Southwest 445 512 36,000  Level Denver Center
06:47PM 37.2414 -104.1897 220° Southwest 441 507 36,000  Level Denver Center
06:48PM 37.1469 -104.2867 219° Southwest 441 507 36,000  Level Denver Center
06:49PM 37.0536 -104.3878 221° Southwest 441 507 36,000  Level Denver Center
06:50PM 36.9750 -104.5033 230° Southwest 438 504 36,000  Level Denver Center
06:51PM 36.9228 -104.6394 244° Southwest 437 503 36,000  Level Denver Center
06:52PM 36.8778 -104.7792 248° West 435 501 36,000  Level Denver Center
06:53PM 36.8294 -104.9278 248° West 434 499 36,000  Level Denver Center
06:54PM 36.7856 -105.0678 249° West 434 499 36,000  Level Denver Center
06:55PM 36.7342 -105.2258 248° West 434 499 36,000  Level Denver Center
06:56PM 36.6889 -105.3639 248° West 434 499 36,000  Level Denver Center
06:57PM 36.6442 -105.5036 248° West 434 499 36,000  Level Denver Center
06:58PM 36.5986 -105.6417 248° West 433 498 36,000  Level Denver Center
06:59PM 36.5522 -105.7819 248° West 435 501 36,000  Level Denver Center
07:00PM 36.5022 -105.9258 247° West 435 501 36,000  Level Denver Center
07:01PM 36.4581 -106.0642 248° West 434 499 36,000  Level Denver Center
07:02PM 36.4119 -106.2033 248° West 434 499 36,000  Level Denver Center
07:03PM 36.3647 -106.3433 247° West 439 505 36,000  Level Denver Center
07:04PM 36.3086 -106.5103 247° West 439 505 36,000  Level Denver Center
07:05PM 36.2633 -106.6444 247° West 439 505 36,000  Level Denver Center
07:06PM 36.2133 -106.7892 247° West 440 506 36,000  Level Denver Center
07:07PM 36.1658 -106.9300 247° West 443 510 36,000  Level Denver Center
07:09PM 36.1167 -107.0697 246° West 445 512 36,000  Level Denver Center
07:10PM 36.0461 -107.2772 247° West 446 513 36,000  Level Albuquerque Center
07:11PM 35.9908 -107.4347 247° West 446 513 36,000  Level Albuquerque Center
07:12PM 35.9447 -107.5686 247° West 446 513 36,000  Level Albuquerque Center
07:13PM 35.8808 -107.6931 238° Southwest 447 514 36,000  Level Albuquerque Center
07:14PM 35.8036 -107.8392 237° Southwest 448 516 36,000  Level Albuquerque Center
07:15PM 35.7372 -107.9631 237° Southwest 449 517 36,000  Level Albuquerque Center
07:16PM 35.6717 -108.0886 237° Southwest 450 518 36,000  Level Albuquerque Center
07:17PM 35.5936 -108.2339 237° Southwest 451 519 36,000  Level Albuquerque Center
07:18PM 35.5269 -108.3589 237° Southwest 451 519 36,000  Level Albuquerque Center
07:19PM 35.4603 -108.4836 237° Southwest 452 520 36,000  Level Albuquerque Center
07:20PM 35.3825 -108.6258 236° Southwest 452 520 36,000 -120 Level Albuquerque Center
07:21PM 35.3172 -108.7481 237° Southwest 451 519 35,800 -420 Descending Albuquerque Center
07:22PM 35.2508 -108.8686 236° Southwest 450 518 35,200 -660 Descending Albuquerque Center
07:23PM 35.1747 -109.0086 236° Southwest 447 514 34,500 -660 Descending Albuquerque Center
07:24PM 35.1094 -109.1283 236° Southwest 445 512 33,900 -600 Descending Albuquerque Center
07:25PM 35.0439 -109.2475 236° Southwest 444 511 33,300 -600 Descending Albuquerque Center
07:26PM 34.9672 -109.3842 236° Southwest 442 509 32,700 -600 Descending Albuquerque Center
07:27PM 34.9039 -109.5042 237° Southwest 441 507 32,100 -720 Descending Albuquerque Center
07:28PM 34.8378 -109.6211 235° Southwest 441 507 31,300 -780 Descending Albuquerque Center
07:29PM 34.7636 -109.7650 238° Southwest 444 511 30,600 -660 Descending Albuquerque Center
07:30PM 34.7364 -109.9111 257° West 454 522 30,000 -720 Descending Albuquerque Center
07:31PM 34.7033 -110.0742 256° West 451 519 29,200 -780 Descending Albuquerque Center
07:32PM 34.6767 -110.2203 258° West 455 524 28,500 -660 Descending Albuquerque Center
07:33PM 34.6492 -110.3639 257° West 456 525 27,900 -720 Descending Albuquerque Center
07:34PM 34.6322 -110.5317 263° West 451 519 27,100 -780 Descending Albuquerque Center
07:35PM 34.6208 -110.6733 264° West 446 513 26,400 -780 Descending Albuquerque Center
07:36PM 34.5847 -110.8231 254° West 461 531 25,600 -1,260 Descending Albuquerque Center
07:37PM 34.5400 -110.9558 248° West 432 497 23,900 -1,920 Descending Albuquerque Center
07:38PM 34.4967 -111.0825 247° West 415 478 21,800 -1,740 Descending Albuquerque Center
07:39PM 34.4506 -111.2136 247° West 417 480 20,400 -1,020 Descending Albuquerque Center
07:40PM 34.3478 -111.2694 204° Southwest 410 472 19,800 -1,020 Descending Albuquerque Center
07:41PM 34.2464 -111.3133 200° South 394 453 18,400 -1,800 Descending Albuquerque Center
07:42PM 34.1494 -111.3597 202° Southwest 375 432 16,200 -1,740 Descending Albuquerque Center
07:43PM 34.0614 -111.4131 207° Southwest 356 410 14,900 -1,740 Descending Albuquerque Center
07:44PM 33.9742 -111.4586 203° Southwest 342 394 12,700 -2,160 Descending Albuquerque Center
07:46PM 33.8828 -111.4994 200° South 343 395 10,600 -1,380 Descending Albuquerque Center
07:47PM 33.7978 -111.5386 201° Southwest 321 369 10,000 -900 Descending Albuquerque Center
07:48PM 33.7219 -111.5739 201° Southwest 293 337 8,800 -960 Descending Albuquerque Center
07:49PM 33.6472 -111.6075 201° Southwest 289 333 8,100 -1,080 Descending Albuquerque Center
07:50PM 33.5872 -111.6739 223° Southwest 292 336 6,700 -840 Descending Albuquerque Center
07:51PM 33.5386 -111.7422 230° Southwest 269 310 6,400 -480 Descending Albuquerque Center
07:52PM 33.5006 -111.7958 230° Southwest 215 247 5,800 -840 Descending Albuquerque Center
07:53PM 33.4692 -111.8411 230° Southwest 181 208 4,700 -1,500 Descending Albuquerque Center
07:53PM 33.4333 -111.8833 225° Southwest 162 186 3,100 -1,440 Descending Phoenix TRACON
07:54PM 33.4333 -111.9333 270° West 154 177 2,200 -900 Descending Phoenix TRACON
07:55PM 33.4333 -111.9833 270° West 153 176 1,400 -840 Descending Phoenix TRACON
07:58PM 33.4343 -112.0116 272° West  Level Estimated